Gobles, Michigan
Current Conditions -  °F | °C
As of 11:35 AM on Friday 31 Oct 2014 (Local Time) from KLWA Reporting Station
Overcast Overcast  
Wind Chill: 36°   Ceiling: 1800
Heat Index: 42°   Visibility: 10mi
Dew Point: 37°   Wind: 12mph
Humidity: 83%   Direction: 10°N
Pressure: 29.94"   Gusts: 22mph
Location:  42.36°N, 85.88°W
Report Text: KLWA 311535Z AUTO 01010G19KT 10SM BKN018 OVC026 06/03 A2994 RMK AO2 T00560029
Loading
Personal Weather Stations






























Interactive Weather Map
Tropical Storm Tracking
New forecast layout! Learn more

10-Day Weather Forecast

Advertisements
Track Severe Weather on mobile